Terminal Aerodrome Forecast
Issued by NWS North Platte, NE

Home | Current Version | Previous Version | Graphics & Text | Print | Product List | Glossary On
Versions: 1 2 3 4 5 6 7 8 9 10 11 12 13 14 15 16 17 18
622
FTUS43 KLBF 292203 AAA
TAFVTN
TAF AMD
KVTN 292203Z 2922/3018 19010KT P6SM SCT040 OVC150
     FM300100 16010KT P6SM VCTS BKN060CB OVC150
     FM300400 15006KT P6SM BKN060 OVC090
     FM301000 18010KT P6SM OVC020
     FM301600 18010KT P6SM SCT020 BKN060=

USA.gov is the U.S. government's official web portal to all federal, state and local government web resources and services.